Airport Name : Halli

Other Name : Halli

ICAO : EFHA

IATA : KEV

FAA :

Latitude : 61.85605

Longitude : 24.7866

Country : Finland

Local Date and Time : 17 May 2021 16:29

 

TAF (Terminal Aerodrome Forecast)

TAF EFHA 171132Z 1712/1715 13012KT 9999 BKN040 TEMPO 1712/1715 4000 TSGR BKN030CB

 

METAR (METeorological Aerodrome Report)

EFHA 171320Z AUTO 15012KT 9999 VCSH //////CB 21/09 Q1005

EFHA 171250Z AUTO 14013G23KT 100V190 9999 VCSH //////CB 21/09 Q1005

EFHA 171220Z AUTO 14014G25KT 100V180 CAVOK 22/09 Q1005

EFHA 171150Z AUTO 12015G27KT 9999 FEW048 22/09 Q1005

EFHA 171120Z 13014KT 090V160 CAVOK 21/10 Q1006

EFHA 171050Z 13013G24KT 090V160 CAVOK 21/09 Q1006

EFHA 171020Z 12010KT 090V160 9999 FEW044 21/10 Q1007

EFHA 170950Z 12013KT 080V160 CAVOK 21/10 Q1007

To Charter a Jet Click here.